Park Terrace, New York
Current Conditions -  °F | °C
As of 6:53 AM on Friday 21 Nov 2014 (Local Time) from KBGM Reporting Station
Clear Clear  
Wind Chill:   Ceiling: Unl
Heat Index: 16°   Visibility: 10mi
Dew Point: 11°   Wind: 12mph
Humidity: 81%   Direction: 270°W
Pressure: 30.08"   Gusts: NA
Location:  42.0523°N, 75.9029°W
Report Text: KBGM 211153Z 27010KT 10SM CLR M09/M12 A3008 RMK AO2 SLP213 60000 T10891117 11067 21089 53027 $
Loading
Personal Weather Stations






























Interactive Weather Map New forecast layout! Learn more

10-Day Weather Forecast

Advertisements
Track Severe Weather on mobile